createdAt,value
2023-03-10T00:00:47.204Z,66.99
2023-03-10T00:03:54.405Z,66.48
2023-03-10T00:07:00.244Z,66.22
2023-03-10T00:10:07.645Z,65.75
2023-03-10T00:13:13.269Z,66.16
2023-03-10T00:16:26.740Z,65.93
2023-03-10T00:19:32.471Z,65.72
2023-03-10T00:22:38.800Z,65.19
2023-03-10T00:25:44.584Z,65.37
2023-03-10T00:28:51.913Z,65.12
2023-03-10T00:32:00.423Z,64.26
2023-03-10T00:35:10.074Z,64.44
2023-03-10T00:38:15.578Z,64.28
2023-03-10T00:41:26.119Z,64.40
2023-03-10T00:44:31.743Z,63.36
2023-03-10T00:47:40.947Z,63.54
2023-03-10T00:50:46.591Z,64.09
2023-03-10T00:53:53.939Z,63.81
2023-03-10T00:56:59.396Z,63.57
2023-03-10T01:00:06.357Z,63.58
2023-03-10T01:03:14.840Z,62.89
2023-03-10T01:06:22.157Z,63.42
2023-03-10T01:09:27.862Z,63.28
2023-03-10T01:12:34.399Z,62.67
2023-03-10T01:15:40.258Z,63.07
2023-03-10T01:18:49.609Z,62.55
2023-03-10T01:21:55.169Z,62.72
2023-03-10T01:25:01.712Z,62.23
2023-03-10T01:28:07.955Z,62.46
2023-03-10T01:31:17.246Z,62.21
2023-03-10T01:34:25.678Z,62.32
2023-03-10T01:37:34.639Z,62.58
2023-03-10T01:40:41.580Z,62.79
2023-03-10T01:43:50.287Z,62.21
2023-03-10T01:46:59.425Z,62.23
2023-03-10T01:50:20.832Z,62.60
2023-03-10T01:53:30.647Z,62.68
2023-03-10T01:56:40.930Z,62.54
2023-03-10T01:59:47.401Z,62.68
2023-03-10T02:03:09.643Z,62.47
2023-03-10T02:06:21.239Z,62.46
2023-03-10T02:09:33.105Z,62.33
2023-03-10T02:12:38.660Z,61.98
2023-03-10T02:15:45.279Z,61.73
2023-03-10T02:18:53.860Z,62.42
2023-03-10T02:22:10.586Z,62.02
2023-03-10T02:25:41.426Z,61.65
2023-03-10T02:28:56.242Z,62.24
2023-03-10T02:32:04.905Z,61.88
2023-03-10T02:35:12.771Z,62.20
2023-03-10T02:38:26.967Z,62.18
2023-03-10T02:41:38.762Z,62.16
2023-03-10T02:44:51.951Z,61.98
2023-03-10T02:47:58.451Z,61.31
2023-03-10T02:51:10.018Z,61.47
2023-03-10T02:54:18.588Z,61.39
2023-03-10T02:57:24.248Z,61.99
2023-03-10T03:00:34.087Z,61.82
2023-03-10T03:03:40.859Z,61.82
2023-03-10T03:06:48.776Z,61.46
2023-03-10T03:09:54.614Z,61.30
2023-03-10T03:13:01.440Z,61.59
2023-03-10T03:16:13.812Z,61.52
2023-03-10T03:19:22.187Z,61.37
2023-03-10T03:22:28.057Z,61.84
2023-03-10T03:25:39.243Z,61.97
2023-03-10T03:28:46.258Z,61.56
2023-03-10T03:31:56.682Z,62.28
2023-03-10T03:35:13.187Z,61.71
2023-03-10T03:38:19.864Z,61.78
2023-03-10T03:41:26.302Z,61.96
2023-03-10T03:44:32.805Z,62.51
2023-03-10T03:47:41.880Z,61.84
2023-03-10T03:50:48.719Z,61.79
2023-03-10T03:54:06.786Z,61.44
2023-03-10T03:57:15.891Z,61.44
2023-03-10T04:00:26.236Z,61.55
2023-03-10T04:03:46.915Z,61.34
2023-03-10T04:06:55.963Z,61.66
2023-03-10T04:10:03.355Z,61.81
2023-03-10T04:13:09.010Z,62.46
2023-03-10T04:16:15.739Z,62.32
2023-03-10T04:19:25.946Z,61.58
2023-03-10T04:22:39.221Z,62.18
2023-03-10T04:25:47.077Z,62.27
2023-03-10T04:28:54.887Z,61.91
2023-03-10T04:32:05.571Z,61.84
2023-03-10T04:35:18.973Z,62.21
2023-03-10T04:38:26.291Z,62.17
2023-03-10T04:41:33.255Z,61.89
2023-03-10T04:44:39.363Z,62.00
2023-03-10T04:47:46.868Z,62.41
2023-03-10T04:51:02.264Z,62.31
2023-03-10T04:54:12.424Z,61.88
2023-03-10T04:57:19.132Z,62.14
2023-03-10T05:00:26.331Z,62.32
2023-03-10T05:03:32.429Z,62.20
2023-03-10T05:06:42.073Z,62.68
2023-03-10T05:10:00.652Z,62.25
2023-03-10T05:13:12.388Z,62.88
2023-03-10T05:16:23.009Z,62.27
2023-03-10T05:19:31.817Z,62.13
2023-03-10T05:22:42.265Z,62.16
2023-03-10T05:25:49.195Z,62.17
2023-03-10T05:28:56.058Z,62.36
2023-03-10T05:32:14.981Z,62.33
2023-03-10T05:35:23.416Z,62.02
2023-03-10T05:38:33.161Z,62.35
2023-03-10T05:41:39.786Z,61.92
2023-03-10T05:44:46.591Z,61.55
2023-03-10T05:47:52.845Z,61.75
2023-03-10T05:51:05.184Z,61.07
2023-03-10T05:54:13.912Z,60.96
2023-03-10T05:57:21.458Z,60.87
2023-03-10T06:00:27.968Z,60.87
2023-03-10T06:03:41.016Z,60.67
2023-03-10T06:06:46.729Z,60.10
2023-03-10T06:09:57.087Z,59.23
2023-03-10T06:13:02.633Z,59.88
2023-03-10T06:16:10.974Z,58.68
2023-03-10T06:19:16.619Z,58.81
2023-03-10T06:22:23.093Z,58.42
2023-03-10T06:25:31.389Z,58.50
2023-03-10T06:28:40.907Z,58.45
2023-03-10T06:31:46.638Z,58.27
2023-03-10T06:34:53.188Z,57.44
2023-03-10T06:37:59.238Z,57.05
2023-03-10T06:41:09.396Z,57.55
2023-03-10T06:44:19.278Z,57.41
2023-03-10T06:47:25.677Z,56.17
2023-03-10T06:50:31.767Z,56.15
2023-03-10T06:53:38.337Z,56.07
2023-03-10T06:56:46.753Z,56.25
2023-03-10T06:59:53.173Z,55.04
2023-03-10T07:02:58.769Z,54.64
2023-03-10T07:06:05.848Z,54.09
2023-03-10T07:09:11.355Z,53.85
2023-03-10T07:12:20.484Z,52.45
2023-03-10T07:15:26.249Z,52.68
2023-03-10T07:18:33.106Z,51.79
2023-03-10T07:21:38.897Z,52.87
2023-03-10T07:24:45.232Z,52.66
2023-03-10T07:27:53.496Z,51.46
2023-03-10T07:31:00.727Z,52.08
2023-03-10T07:34:06.354Z,52.04
2023-03-10T07:37:12.663Z,51.13
2023-03-10T07:40:18.290Z,50.87
2023-03-10T07:43:27.614Z,50.63
2023-03-10T07:46:33.517Z,51.56
2023-03-10T07:49:40.070Z,50.27
2023-03-10T07:52:45.655Z,50.89
2023-03-10T07:55:52.045Z,50.30
2023-03-10T07:59:02.733Z,50.35
2023-03-10T08:02:10.446Z,49.65
2023-03-10T08:05:16.675Z,48.78
2023-03-10T08:08:23.428Z,48.82
2023-03-10T08:11:29.913Z,49.37
2023-03-10T08:14:39.188Z,48.24
2023-03-10T08:17:44.998Z,48.45
2023-03-10T08:20:51.370Z,47.71
2023-03-10T08:23:56.941Z,48.26
2023-03-10T08:27:03.359Z,47.80
2023-03-10T08:30:14.371Z,47.55
2023-03-10T08:33:21.740Z,47.63
2023-03-10T08:36:32.087Z,46.95
2023-03-10T08:39:38.972Z,46.78
2023-03-10T08:42:46.989Z,46.55
2023-03-10T08:45:57.409Z,46.11
2023-03-10T08:49:05.871Z,46.20
2023-03-10T08:52:14.553Z,45.62
2023-03-10T08:55:20.151Z,45.39
2023-03-10T08:58:26.525Z,45.25
2023-03-10T09:01:38.764Z,45.12
2023-03-10T09:04:45.491Z,45.93
2023-03-10T09:07:50.977Z,45.88
2023-03-10T09:10:57.388Z,45.60
2023-03-10T09:14:05.609Z,45.91
2023-03-10T09:17:14.917Z,45.51
2023-03-10T09:20:22.813Z,45.95
2023-03-10T09:23:29.236Z,45.18
2023-03-10T09:26:35.662Z,45.41
2023-03-10T09:29:43.668Z,45.35
2023-03-10T09:32:52.433Z,44.95
2023-03-10T09:36:06.390Z,45.38
2023-03-10T09:39:12.826Z,45.69
2023-03-10T09:42:42.902Z,45.43
2023-03-10T09:46:00.925Z,44.94
2023-03-10T09:49:26.355Z,45.22
2023-03-10T09:52:47.516Z,45.34
2023-03-10T09:55:54.011Z,45.46
2023-03-10T09:59:11.371Z,45.81
2023-03-10T10:02:26.328Z,45.38
2023-03-10T10:05:39.710Z,45.97
2023-03-10T10:09:04.251Z,45.50
2023-03-10T10:12:17.196Z,46.06
2023-03-10T10:15:29.373Z,45.79
2023-03-10T10:18:46.210Z,45.86
2023-03-10T10:22:10.750Z,46.56
2023-03-10T10:25:25.343Z,46.31
2023-03-10T10:28:48.252Z,46.70
2023-03-10T10:32:14.315Z,46.96
2023-03-10T10:35:29.270Z,46.86
2023-03-10T10:38:37.645Z,46.79
2023-03-10T10:41:44.394Z,46.67
2023-03-10T10:44:50.711Z,46.16
2023-03-10T10:47:57.549Z,46.00
2023-03-10T10:51:03.370Z,45.92
2023-03-10T10:54:29.769Z,46.10
2023-03-10T10:57:46.324Z,45.16
2023-03-10T11:01:02.051Z,45.81
2023-03-10T11:04:11.271Z,45.64
2023-03-10T11:07:23.527Z,45.04
2023-03-10T11:10:38.326Z,44.96
2023-03-10T11:14:10.390Z,45.68
2023-03-10T11:17:28.756Z,45.71
2023-03-10T11:21:00.697Z,46.33
2023-03-10T11:24:19.865Z,46.71
2023-03-10T11:27:52.211Z,46.38
2023-03-10T11:31:20.806Z,46.40
2023-03-10T11:34:33.795Z,46.30
2023-03-10T11:37:54.778Z,45.80
2023-03-10T11:41:14.620Z,45.47
2023-03-10T11:44:37.320Z,45.70
2023-03-10T11:48:01.070Z,45.63
2023-03-10T11:51:09.338Z,45.44
2023-03-10T11:54:26.822Z,45.61
2023-03-10T11:57:43.295Z,45.07
2023-03-10T12:00:56.284Z,44.81
2023-03-10T12:04:16.890Z,44.59
2023-03-10T12:07:32.214Z,44.06
2023-03-10T12:10:45.210Z,44.57
2023-03-10T12:13:59.887Z,43.95
2023-03-10T12:17:09.465Z,45.79
2023-03-10T12:20:33.408Z,45.49
2023-03-10T12:23:44.951Z,47.30
2023-03-10T12:27:05.359Z,47.54
2023-03-10T12:30:47.714Z,47.31
2023-03-10T12:34:17.847Z,46.84
2023-03-10T12:37:27.177Z,45.45
2023-03-10T12:40:54.817Z,46.26
2023-03-10T12:44:03.970Z,46.83
2023-03-10T12:47:33.402Z,46.04
2023-03-10T12:50:54.817Z,45.62
2023-03-10T12:54:19.385Z,46.06
2023-03-10T12:57:37.151Z,45.26
2023-03-10T13:00:54.085Z,44.67
2023-03-10T13:04:00.869Z,44.28
2023-03-10T13:07:20.010Z,43.82
2023-03-10T13:10:32.051Z,45.06
2023-03-10T13:13:41.873Z,45.08
2023-03-10T13:16:58.182Z,45.45
2023-03-10T13:20:11.629Z,45.82
2023-03-10T13:23:29.709Z,45.33
2023-03-10T13:26:36.194Z,44.21
2023-03-10T13:29:56.879Z,44.65
2023-03-10T13:33:05.690Z,45.66
2023-03-10T13:36:34.197Z,47.55
2023-03-10T13:39:44.540Z,46.55
2023-03-10T13:42:51.326Z,46.28
2023-03-10T13:46:01.462Z,45.83
2023-03-10T13:49:11.457Z,46.28
2023-03-10T13:52:23.293Z,46.20
2023-03-10T13:55:42.047Z,45.47
2023-03-10T13:58:52.103Z,45.77
2023-03-10T14:02:02.194Z,45.81
2023-03-10T14:05:11.585Z,45.64
2023-03-10T14:08:28.952Z,45.48
2023-03-10T14:11:46.407Z,45.95
2023-03-10T14:14:52.950Z,45.49
2023-03-10T14:18:23.159Z,44.83
2023-03-10T14:21:36.680Z,43.66
2023-03-10T14:24:45.258Z,43.03
2023-03-10T14:28:02.077Z,44.18
2023-03-10T14:31:09.199Z,43.63
2023-03-10T14:34:16.901Z,43.13
2023-03-10T14:37:24.085Z,43.16
2023-03-10T14:40:30.192Z,43.56
2023-03-10T14:43:40.840Z,43.56
2023-03-10T14:46:53.361Z,43.43
2023-03-10T14:50:01.189Z,43.16
2023-03-10T14:53:09.632Z,42.91
2023-03-10T14:56:21.944Z,42.86
2023-03-10T14:59:32.626Z,42.47
2023-03-10T15:02:40.646Z,43.15
2023-03-10T15:05:49.081Z,44.31
2023-03-10T15:08:56.420Z,45.05
2023-03-10T15:12:02.858Z,45.45
2023-03-10T15:15:21.187Z,45.28
2023-03-10T15:18:27.967Z,44.99
2023-03-10T15:21:35.521Z,45.23
2023-03-10T15:24:42.425Z,44.94
2023-03-10T15:27:52.371Z,44.36
2023-03-10T15:31:01.261Z,44.68
2023-03-10T15:34:08.465Z,44.71
2023-03-10T15:37:14.380Z,45.04
2023-03-10T15:40:24.962Z,45.14
2023-03-10T15:43:31.189Z,45.18
2023-03-10T15:46:42.103Z,44.54
2023-03-10T15:49:48.648Z,44.59
2023-03-10T15:52:59.480Z,44.44
2023-03-10T15:56:10.268Z,45.23
2023-03-10T15:59:17.617Z,45.48
2023-03-10T16:02:27.182Z,45.25
2023-03-10T16:05:34.028Z,45.18
2023-03-10T16:08:41.360Z,45.63
2023-03-10T16:11:49.268Z,45.96
2023-03-10T16:14:55.583Z,45.81
2023-03-10T16:18:05.433Z,45.81
2023-03-10T16:21:11.349Z,45.85
2023-03-10T16:24:18.372Z,46.31
2023-03-10T16:27:24.526Z,46.32
2023-03-10T16:30:31.453Z,46.67
2023-03-10T16:33:40.392Z,47.05
2023-03-10T16:36:47.262Z,46.96
2023-03-10T16:39:57.159Z,47.30
2023-03-10T16:43:03.919Z,47.53
2023-03-10T16:46:14.803Z,47.94
2023-03-10T16:49:24.537Z,48.57
2023-03-10T16:52:30.922Z,48.61
2023-03-10T16:55:37.619Z,48.68
2023-03-10T16:58:43.699Z,48.96
2023-03-10T17:01:50.808Z,49.13
2023-03-10T17:04:59.598Z,49.41
2023-03-10T17:08:06.608Z,49.52
2023-03-10T17:11:23.816Z,49.80
2023-03-10T17:14:30.868Z,49.25
2023-03-10T17:17:36.918Z,49.94
2023-03-10T17:20:46.826Z,50.25
2023-03-10T17:23:53.397Z,50.27
2023-03-10T17:27:00.492Z,49.96
2023-03-10T17:30:07.429Z,50.59
2023-03-10T17:33:14.625Z,50.69
2023-03-10T17:36:23.725Z,50.70
2023-03-10T17:39:54.093Z,50.66
2023-03-10T17:43:17.711Z,51.27
2023-03-10T17:46:33.176Z,51.11
2023-03-10T17:49:40.854Z,50.87
2023-03-10T17:52:52.498Z,50.72
2023-03-10T17:56:00.097Z,51.13
2023-03-10T17:59:07.112Z,50.50
2023-03-10T18:02:15.787Z,51.14
2023-03-10T18:05:22.791Z,51.07
2023-03-10T18:08:32.188Z,50.99
2023-03-10T18:11:39.814Z,51.09
2023-03-10T18:14:46.141Z,51.34
2023-03-10T18:17:53.529Z,51.36
2023-03-10T18:20:59.613Z,51.42
2023-03-10T18:24:10.422Z,51.25
2023-03-10T18:27:17.003Z,51.21
2023-03-10T18:30:24.852Z,52.08
2023-03-10T18:33:30.886Z,51.97
2023-03-10T18:36:38.051Z,52.11
2023-03-10T18:39:47.011Z,52.32
2023-03-10T18:42:53.954Z,52.90
2023-03-10T18:46:00.405Z,52.63
2023-03-10T18:49:08.097Z,52.96
2023-03-10T18:52:16.818Z,52.53
2023-03-10T18:55:27.290Z,53.02
2023-03-10T18:58:33.833Z,53.03
2023-03-10T19:01:40.907Z,52.96
2023-03-10T19:04:48.664Z,53.09
2023-03-10T19:07:56.411Z,53.40
2023-03-10T19:11:08.106Z,53.41
2023-03-10T19:14:16.116Z,53.85
2023-03-10T19:17:22.700Z,53.88
2023-03-10T19:20:30.101Z,53.82
2023-03-10T19:23:37.150Z,54.04
2023-03-10T19:26:47.282Z,54.03
2023-03-10T19:29:55.674Z,54.41
2023-03-10T19:33:03.781Z,54.77
2023-03-10T19:36:14.354Z,54.85
2023-03-10T19:39:23.901Z,54.52
2023-03-10T19:42:32.883Z,55.46
2023-03-10T19:45:40.323Z,54.55
2023-03-10T19:48:48.037Z,55.29
2023-03-10T19:51:55.133Z,54.94
2023-03-10T19:55:01.710Z,54.55
2023-03-10T19:58:12.011Z,54.65
2023-03-10T20:01:23.938Z,55.52
2023-03-10T20:04:34.713Z,55.46
2023-03-10T20:07:40.938Z,55.24
2023-03-10T20:10:49.284Z,55.40
2023-03-10T20:13:58.474Z,56.03
2023-03-10T20:17:05.386Z,56.41
2023-03-10T20:20:15.458Z,56.08
2023-03-10T20:23:22.588Z,56.16
2023-03-10T20:26:28.711Z,55.34
2023-03-10T20:29:38.792Z,56.11
2023-03-10T20:32:44.919Z,55.85
2023-03-10T20:35:52.020Z,56.03
2023-03-10T20:38:58.472Z,55.89
2023-03-10T20:42:05.322Z,55.10
2023-03-10T20:45:15.653Z,55.81
2023-03-10T20:48:22.544Z,55.48
2023-03-10T20:51:28.644Z,55.27
2023-03-10T20:54:35.851Z,54.88
2023-03-10T20:57:41.913Z,55.61
2023-03-10T21:00:52.623Z,55.44
2023-03-10T21:03:58.782Z,55.40
2023-03-10T21:07:06.212Z,54.94
2023-03-10T21:10:17.072Z,54.93
2023-03-10T21:13:24.589Z,54.83
2023-03-10T21:16:33.521Z,54.55
2023-03-10T21:19:40.262Z,55.42
2023-03-10T21:22:46.577Z,54.67
2023-03-10T21:25:53.344Z,55.28
2023-03-10T21:29:00.352Z,54.55
2023-03-10T21:32:10.058Z,54.89
2023-03-10T21:35:16.388Z,54.13
2023-03-10T21:38:23.168Z,54.50
2023-03-10T21:41:31.885Z,53.78
2023-03-10T21:44:39.104Z,54.11
2023-03-10T21:47:48.805Z,53.84
2023-03-10T21:50:55.787Z,54.09
2023-03-10T21:54:01.690Z,53.54
2023-03-10T21:57:08.355Z,52.72
2023-03-10T22:00:16.818Z,53.14
2023-03-10T22:03:26.467Z,52.76
2023-03-10T22:06:32.432Z,52.90
2023-03-10T22:09:42.596Z,53.54
2023-03-10T22:12:48.894Z,53.18
2023-03-10T22:15:55.645Z,52.01
2023-03-10T22:19:04.693Z,52.16
2023-03-10T22:22:11.675Z,51.87
2023-03-10T22:25:18.107Z,52.15
2023-03-10T22:28:24.776Z,52.51
2023-03-10T22:31:30.639Z,52.88
2023-03-10T22:34:40.194Z,53.12
2023-03-10T22:37:47.226Z,52.92
2023-03-10T22:40:54.080Z,52.61
2023-03-10T22:43:59.912Z,53.15
2023-03-10T22:47:08.202Z,53.84
2023-03-10T22:50:22.474Z,53.38
2023-03-10T22:53:29.173Z,54.36
2023-03-10T22:56:34.938Z,54.09
2023-03-10T22:59:41.593Z,54.05
2023-03-10T23:02:47.199Z,54.42
2023-03-10T23:05:58.553Z,54.91
2023-03-10T23:09:04.425Z,55.61
2023-03-10T23:12:11.700Z,54.81
2023-03-10T23:15:25.660Z,55.46
2023-03-10T23:18:32.472Z,55.90
2023-03-10T23:21:41.612Z,56.76
2023-03-10T23:24:48.052Z,56.68
2023-03-10T23:27:54.128Z,56.80
2023-03-10T23:31:00.688Z,56.42
2023-03-10T23:34:06.491Z,57.02
2023-03-10T23:37:15.956Z,57.53
2023-03-10T23:40:27.283Z,57.28
2023-03-10T23:43:33.818Z,56.88
2023-03-10T23:46:39.458Z,57.02
2023-03-10T23:49:46.037Z,56.86
2023-03-10T23:52:54.887Z,56.94
2023-03-10T23:56:01.322Z,57.00
2023-03-10T23:59:07.051Z,56.67
